Time;durP1;ratioP1;P1;durP2;ratioP2;P2;SDS_P1;SDS_P2;PMS_P1;PMS_P2;Temp;Humidity;BMP_temperature;BMP_pressure;BME280_temperature;BME280_humidity;BME280_pressure;Samples;Min_cycle;Max_cycle;Signal;HPM_P1;HPM_P2
2021/04/03 00:00:16;;;;;;;9.10;5.40;;;;;;;4.45;100.00;96233.59;1015838;29;20032;-62
2021/04/03 00:00:50;;;;;;;8.52;5.95;;;;;;;4.45;100.00;96231.81;1027738;28;20023;-62
2021/04/03 00:01:21;;;;;;;10.68;5.60;;;;;;;4.45;100.00;96228.34;1023670;29;20023;-61
2021/04/03 00:01:51;;;;;;;7.63;4.60;;;;;;;4.43;100.00;96232.91;1023692;28;20035;-61
2021/04/03 00:02:22;;;;;;;8.70;5.65;;;;;;;4.41;100.00;96230.41;1027662;28;20035;-62
2021/04/03 00:02:53;;;;;;;9.45;5.78;;;;;;;4.43;100.00;96231.09;1019814;29;20023;-61
2021/04/03 00:03:25;;;;;;;9.18;5.55;;;;;;;4.43;100.00;96232.91;1015768;29;20031;-61
2021/04/03 00:03:56;;;;;;;8.73;5.90;;;;;;;4.45;100.00;96231.81;1015605;29;20026;-61
2021/04/03 00:04:26;;;;;;;8.45;5.72;;;;;;;4.45;100.00;96233.59;1015764;29;20410;-61
2021/04/03 00:04:57;;;;;;;9.23;5.35;;;;;;;4.56;100.00;96224.78;1027695;28;20019;-62
2021/04/03 00:05:28;;;;;;;9.07;5.47;;;;;;;4.65;100.00;96234.50;1015829;28;20422;-63
2021/04/03 00:05:59;;;;;;;10.15;6.07;;;;;;;4.65;100.00;96230.09;1027608;28;20018;-62
2021/04/03 00:06:30;;;;;;;8.55;5.05;;;;;;;4.69;100.00;96228.88;1023747;29;20019;-62
2021/04/03 00:07:01;;;;;;;7.80;5.57;;;;;;;4.72;100.00;96228.59;1035771;28;20458;-61
2021/04/03 00:07:32;;;;;;;9.73;5.50;;;;;;;4.71;100.00;96232.19;1019602;28;20019;-61
2021/04/03 00:08:04;;;;;;;9.57;5.38;;;;;;;4.75;100.00;96231.94;1019643;29;20514;-61
2021/04/03 00:08:35;;;;;;;9.05;5.28;;;;;;;4.75;100.00;96229.31;1023713;29;20026;-61
2021/04/03 00:09:06;;;;;;;8.30;5.05;;;;;;;4.81;100.00;96236.69;1023690;29;20022;-61
2021/04/03 00:09:36;;;;;;;10.20;5.53;;;;;;;4.81;100.00;96231.41;1019733;29;20398;-61
2021/04/03 00:10:11;;;;;;;7.32;4.70;;;;;;;4.63;100.00;96216.25;1023580;28;20019;-60
2021/04/03 00:10:46;;;;;;;7.60;4.90;;;;;;;4.65;100.00;96235.38;1027611;28;20019;-62
2021/04/03 00:11:20;;;;;;;8.23;5.28;;;;;;;4.70;100.00;96225.28;1023799;28;20388;-62
2021/04/03 00:11:50;;;;;;;9.90;5.43;;;;;;;4.75;100.00;96221.41;1015835;29;20019;-62
2021/04/03 00:12:21;;;;;;;8.35;5.10;;;;;;;4.77;100.00;96220.28;1027446;28;20022;-61
2021/04/03 00:12:52;;;;;;;7.97;4.90;;;;;;;4.80;100.00;96220.03;1027823;28;20019;-62
2021/04/03 00:13:25;;;;;;;7.60;4.97;;;;;;;4.82;100.00;96219.91;1023674;29;20030;-61
2021/04/03 00:13:56;;;;;;;9.15;5.15;;;;;;;4.85;100.00;96224.91;1019543;29;20026;-61
2021/04/03 00:14:26;;;;;;;8.25;5.10;;;;;;;4.82;100.00;96231.25;1027597;28;20499;-62
2021/04/03 00:14:57;;;;;;;7.55;5.00;;;;;;;4.80;100.00;96224.47;1027770;28;20481;-62
2021/04/03 00:15:28;;;;;;;9.13;5.78;;;;;;;4.78;100.00;96221.16;1019767;29;20020;-62
2021/04/03 00:15:59;;;;;;;10.02;5.93;;;;;;;4.79;100.00;96228.06;1015934;29;20020;-62
2021/04/03 00:16:29;;;;;;;7.93;5.20;;;;;;;4.80;100.00;96232.38;1015846;29;20474;-61
2021/04/03 00:17:00;;;;;;;7.20;4.68;;;;;;;4.81;100.00;96228.78;1011993;29;20108;-61
2021/04/03 00:17:31;;;;;;;8.93;5.28;;;;;;;4.80;100.00;96227.94;1015988;29;20012;-61
2021/04/03 00:18:01;;;;;;;8.18;5.50;;;;;;;4.77;100.00;96230.00;1019821;29;20019;-61
2021/04/03 00:18:32;;;;;;;10.88;6.03;;;;;;;4.67;100.00;96230.81;1015704;29;20020;-61
2021/04/03 00:19:03;;;;;;;10.18;5.55;;;;;;;4.61;100.00;96227.84;1012057;29;20024;-61
2021/04/03 00:19:34;;;;;;;9.43;5.82;;;;;;;4.57;100.00;96229.09;1019743;29;20475;-61
2021/04/03 00:20:07;;;;;;;8.25;5.25;;;;;;;4.55;100.00;96234.50;1031651;28;20530;-61
2021/04/03 00:20:38;;;;;;;8.15;5.15;;;;;;;4.46;100.00;96235.25;1023562;29;20067;-62
2021/04/03 00:21:09;;;;;;;7.78;5.00;;;;;;;4.39;100.00;96236.75;1023728;29;20016;-62
2021/04/03 00:21:39;;;;;;;7.93;5.25;;;;;;;4.37;100.00;96236.03;1027644;28;20025;-61
2021/04/03 00:22:10;;;;;;;10.07;5.18;;;;;;;4.31;100.00;96242.66;1023883;28;20015;-63
2021/04/03 00:22:41;;;;;;;10.43;5.82;;;;;;;4.30;100.00;96239.22;1023678;29;20493;-62
2021/04/03 00:23:14;;;;;;;8.52;5.90;;;;;;;4.41;100.00;96237.47;1015815;29;20015;-61
2021/04/03 00:23:45;;;;;;;8.40;5.20;;;;;;;4.44;100.00;96240.66;1015760;29;20016;-62
2021/04/03 00:24:16;;;;;;;9.00;5.82;;;;;;;4.50;100.00;96244.56;1015886;29;20024;-61
2021/04/03 00:24:47;;;;;;;8.73;5.25;;;;;;;4.53;100.00;96244.31;1023758;29;20093;-62
2021/04/03 00:25:18;;;;;;;9.63;5.63;;;;;;;4.49;100.00;96229.75;1019912;28;20020;-61
2021/04/03 00:25:49;;;;;;;9.52;5.78;;;;;;;4.58;100.00;96242.13;1031863;28;20022;-62
2021/04/03 00:26:20;;;;;;;8.65;5.32;;;;;;;4.57;100.00;96229.94;1019908;29;20106;-62
2021/04/03 00:26:50;;;;;;;8.68;5.72;;;;;;;4.67;100.00;96232.59;1031742;28;20019;-62
2021/04/03 00:27:21;;;;;;;13.80;5.90;;;;;;;4.65;100.00;96243.25;1031728;28;20029;-61
2021/04/03 00:27:52;;;;;;;9.48;5.55;;;;;;;4.65;100.00;96240.63;1023798;29;20485;-60
2021/04/03 00:28:23;;;;;;;10.68;5.95;;;;;;;4.68;100.00;96245.59;1019872;29;20019;-62
2021/04/03 00:28:53;;;;;;;8.68;5.05;;;;;;;4.67;100.00;96236.06;1011880;29;20013;-61
2021/04/03 00:29:24;;;;;;;11.63;5.65;;;;;;;4.68;100.00;96242.16;1015848;29;20467;-61
2021/04/03 00:29:55;;;;;;;8.52;5.38;;;;;;;4.69;100.00;96243.81;1015989;29;20020;-61
2021/04/03 00:30:25;;;;;;;10.27;5.53;;;;;;;4.70;100.00;96242.84;1016054;29;20087;-63
2021/04/03 00:30:56;;;;;;;9.25;5.53;;;;;;;4.75;100.00;96237.19;1013775;29;20043;-61
2021/04/03 00:31:27;;;;;;;9.23;5.30;;;;;;;4.77;100.00;96248.41;1019144;29;20020;-62
2021/04/03 00:31:57;;;;;;;11.68;5.20;;;;;;;4.75;100.00;96242.47;1023030;29;20075;-62
2021/04/03 00:32:28;;;;;;;7.35;4.85;;;;;;;4.66;100.00;96249.34;1026916;29;20288;-61
2021/04/03 00:33:01;;;;;;;8.20;5.22;;;;;;;4.64;100.00;96246.03;1023157;29;20529;-63
2021/04/03 00:33:32;;;;;;;8.82;5.35;;;;;;;4.62;100.00;96242.69;1015067;29;20021;-61
2021/04/03 00:34:02;;;;;;;10.20;5.45;;;;;;;4.63;100.00;96239.06;1018784;29;20447;-62
2021/04/03 00:34:33;;;;;;;8.68;5.47;;;;;;;4.67;100.00;96245.75;1019338;29;20084;-62
2021/04/03 00:35:05;;;;;;;6.65;4.85;;;;;;;4.66;100.00;96244.09;1027117;29;20023;-62
2021/04/03 00:35:37;;;;;;;8.88;5.22;;;;;;;4.70;100.00;96250.72;1023147;28;20020;-63
2021/04/03 00:36:08;;;;;;;10.40;5.95;;;;;;;4.69;100.00;96239.38;1027661;29;20035;-62
2021/04/03 00:36:39;;;;;;;7.63;4.90;;;;;;;4.62;100.00;96251.41;1028083;28;20050;-63
2021/04/03 00:37:09;;;;;;;9.02;5.50;;;;;;;4.61;100.00;96247.09;1032404;28;20025;-61
2021/04/03 00:37:40;;;;;;;9.27;5.15;;;;;;;4.65;100.00;96242.41;1032146;28;20015;-61
2021/04/03 00:38:11;;;;;;;8.88;5.60;;;;;;;4.60;100.00;96250.72;1020552;29;20031;-61
2021/04/03 00:38:42;;;;;;;10.00;5.72;;;;;;;4.52;100.00;96250.53;1016677;29;20525;-61
2021/04/03 00:39:13;;;;;;;9.55;5.85;;;;;;;4.57;100.00;96240.44;1028539;28;20042;-61
2021/04/03 00:39:43;;;;;;;9.15;5.72;;;;;;;4.58;100.00;96244.75;1020545;28;20019;-61
2021/04/03 00:40:24;;;;;;;9.25;5.65;;;;;;;4.58;100.00;96255.28;1016651;29;20020;-62
2021/04/03 00:40:55;;;;;;;9.20;5.63;;;;;;;4.60;100.00;96248.06;1016842;28;20020;-63
2021/04/03 00:41:26;;;;;;;12.38;5.88;;;;;;;4.57;100.00;96258.84;1020456;29;20023;-61
2021/04/03 00:41:57;;;;;;;9.50;5.55;;;;;;;4.60;100.00;96245.44;1020646;29;20497;-63
2021/04/03 00:42:28;;;;;;;10.82;6.43;;;;;;;4.49;100.00;96242.88;1024206;29;20015;-60
2021/04/03 00:43:01;;;;;;;8.63;5.45;;;;;;;4.58;100.00;96251.78;1024658;29;20023;-62
2021/04/03 00:43:32;;;;;;;10.05;5.63;;;;;;;4.46;100.00;96253.66;1020353;28;20042;-60
2021/04/03 00:44:06;;;;;;;7.93;5.78;;;;;;;4.52;100.00;96253.16;1024438;29;20396;-61
2021/04/03 00:44:37;;;;;;;9.40;5.80;;;;;;;4.56;100.00;96248.47;1032436;28;20113;-62
2021/04/03 00:45:09;;;;;;;9.85;5.45;;;;;;;4.57;100.00;96255.41;1020622;28;20093;-62
2021/04/03 00:45:40;;;;;;;9.50;5.57;;;;;;;4.57;100.00;96261.47;1016608;29;20084;-62
2021/04/03 00:46:11;;;;;;;9.75;5.30;;;;;;;4.46;100.00;96272.06;1024580;28;20027;-62
2021/04/03 00:46:41;;;;;;;10.57;5.85;;;;;;;4.38;100.00;96249.06;1028495;28;20023;-61
2021/04/03 00:47:13;;;;;;;8.82;5.55;;;;;;;4.40;100.00;96252.41;1020615;29;20015;-62
2021/04/03 00:47:45;;;;;;;9.27;5.25;;;;;;;4.47;100.00;96244.81;1024239;28;20027;-60
2021/04/03 00:48:16;;;;;;;10.60;5.57;;;;;;;4.44;100.00;96251.19;1028490;28;20034;-61
2021/04/03 00:48:48;;;;;;;8.80;5.30;;;;;;;4.43;100.00;96261.84;1016607;29;20024;-61
2021/04/03 00:49:19;;;;;;;8.38;5.43;;;;;;;4.40;100.00;96254.19;1024466;29;20082;-61
2021/04/03 00:49:50;;;;;;;10.00;5.65;;;;;;;4.28;100.00;96253.44;1028370;28;20472;-61
2021/04/03 00:50:25;;;;;;;10.13;5.63;;;;;;;4.30;100.00;96262.88;1020495;29;20097;-61
2021/04/03 00:50:55;;;;;;;9.38;5.57;;;;;;;4.25;100.00;96251.91;1020498;29;20405;-60
2021/04/03 00:51:26;;;;;;;11.98;5.88;;;;;;;4.26;100.00;96258.81;1024420;29;20113;-60
2021/04/03 00:52:01;;;;;;;10.57;6.10;;;;;;;4.26;100.00;96256.19;1020407;29;20094;-61
2021/04/03 00:52:32;;;;;;;8.85;4.78;;;;;;;4.25;100.00;96251.91;1016459;29;20039;-60
2021/04/03 00:53:04;;;;;;;8.80;5.50;;;;;;;4.33;100.00;96254.69;1020539;29;20457;-61
2021/04/03 00:53:35;;;;;;;9.68;5.38;;;;;;;4.31;100.00;96254.00;1028193;28;20404;-60
2021/04/03 00:54:07;;;;;;;11.55;5.65;;;;;;;4.32;100.00;96257.50;1012457;29;20115;-61
2021/04/03 00:54:39;;;;;;;10.15;5.30;;;;;;;4.32;100.00;96260.13;1012605;29;20025;-61
2021/04/03 00:55:10;;;;;;;9.25;5.97;;;;;;;4.23;100.00;96264.34;1016492;29;20075;-61
2021/04/03 00:55:41;;;;;;;12.40;5.75;;;;;;;4.17;100.00;96259.59;1016447;29;20054;-61
2021/04/03 00:56:12;;;;;;;8.85;5.15;;;;;;;4.14;100.00;96271.22;1020391;29;20390;-60
2021/04/03 00:56:43;;;;;;;14.70;5.43;;;;;;;4.23;100.00;96266.97;1016482;29;20020;-60
2021/04/03 00:57:13;;;;;;;11.05;5.68;;;;;;;4.28;100.00;96256.88;1028425;28;20177;-61
2021/04/03 00:57:46;;;;;;;13.77;5.65;;;;;;;4.31;100.00;96264.53;1028397;28;20132;-61
2021/04/03 00:58:17;;;;;;;10.27;5.72;;;;;;;4.26;100.00;96258.81;1020276;28;20474;-61
2021/04/03 00:58:48;;;;;;;10.80;5.88;;;;;;;4.21;100.00;96266.25;1016412;29;20027;-61
2021/04/03 00:59:19;;;;;;;12.00;5.57;;;;;;;4.15;100.00;96272.88;1020410;29;20039;-59
2021/04/03 00:59:50;;;;;;;11.00;5.47;;;;;;;4.10;100.00;96268.97;1016462;29;20031;-63
2021/04/03 01:00:21;;;;;;;10.18;5.47;;;;;;;4.15;100.00;96269.41;1024244;28;20041;-61
2021/04/03 01:00:51;;;;;;;11.23;5.88;;;;;;;4.20;100.00;96269.88;1036403;28;20615;-62
2021/04/03 01:01:22;;;;;;;7.10;4.90;;;;;;;4.20;100.00;96269.88;1028378;28;20035;-62
2021/04/03 01:01:53;;;;;;;11.38;5.57;;;;;;;4.21;100.00;96268.88;1016512;29;20028;-61
2021/04/03 01:02:24;;;;;;;12.07;5.88;;;;;;;4.20;100.00;96264.59;1016297;29;20028;-62
2021/04/03 01:02:55;;;;;;;8.30;5.25;;;;;;;4.22;100.00;96267.94;1028282;28;20046;-61
2021/04/03 01:03:26;;;;;;;9.93;5.75;;;;;;;4.03;100.00;96223.97;1032271;28;20049;-61
2021/04/03 01:03:57;;;;;;;10.15;6.13;;;;;;;4.19;100.00;96268.19;1020203;29;20027;-61
2021/04/03 01:04:28;;;;;;;11.52;5.28;;;;;;;4.19;100.00;96273.44;1012480;29;20039;-61
2021/04/03 01:05:00;;;;;;;11.32;5.57;;;;;;;4.17;100.00;96264.84;1016480;29;20138;-61
2021/04/03 01:05:31;;;;;;;12.65;5.72;;;;;;;4.17;100.00;96272.75;1024415;28;20505;-61
2021/04/03 01:06:01;;;;;;;9.18;5.88;;;;;;;4.15;100.00;96272.88;1028304;28;20018;-61
2021/04/03 01:06:32;;;;;;;8.88;5.57;;;;;;;4.21;100.00;96276.78;1020350;29;20116;-61
2021/04/03 01:07:03;;;;;;;9.43;5.50;;;;;;;4.07;100.00;96275.28;1020358;29;20106;-61
2021/04/03 01:07:34;;;;;;;9.50;5.47;;;;;;;4.08;100.00;96278.78;1024323;29;20368;-60
2021/04/03 01:08:05;;;;;;;10.93;4.97;;;;;;;4.02;100.00;96266.13;1016459;29;20161;-61
2021/04/03 01:08:36;;;;;;;9.02;5.22;;;;;;;4.05;100.00;96279.84;1020333;29;20102;-61
2021/04/03 01:09:06;;;;;;;8.52;4.95;;;;;;;4.10;100.00;96282.09;1020358;29;20026;-60
2021/04/03 01:09:38;;;;;;;12.02;5.60;;;;;;;4.14;100.00;96273.00;1020338;29;20015;-61
2021/04/03 01:10:12;;;;;;;10.63;5.50;;;;;;;4.12;100.00;96274.91;1016412;29;20115;-61
2021/04/03 01:10:45;;;;;;;9.85;5.47;;;;;;;4.06;100.00;96273.63;1016289;29;20027;-61
2021/04/03 01:11:16;;;;;;;10.25;5.22;;;;;;;4.06;100.00;96276.28;1024215;29;20066;-61
2021/04/03 01:12:00;;;;;;;13.25;5.60;;;;;;;4.06;100.00;96284.16;1028236;28;20030;-61
2021/04/03 01:12:39;;;;;;;11.90;5.93;;;;;;;3.94;100.00;96266.78;1028124;28;20509;-61
2021/04/03 01:13:29;;;;;;;10.10;5.93;;;;;;;3.97;100.00;96264.72;1024354;28;20091;-61
2021/04/03 01:14:12;;;;;;;9.13;4.70;;;;;;;4.08;100.00;96284.03;1020308;29;20055;-60
2021/04/03 01:14:51;;;;;;;12.57;6.40;;;;;;;4.06;100.00;96284.16;1028283;28;20022;-62
2021/04/03 01:15:24;;;;;;;;;;;;;;;4.04;100.00;96287.84;1024730;28;20023;-62
2021/04/03 01:16:09;;;;;;;9.50;4.95;;;;;;;3.97;100.00;96285.75;1027554;28;20342;-61
2021/04/03 01:16:46;;;;;;;10.45;5.63;;;;;;;3.92;100.00;96287.91;1016333;29;20023;-61
2021/04/03 01:17:21;;;;;;;11.85;5.55;;;;;;;4.00;100.00;96289.06;1024338;29;20501;-61
2021/04/03 01:18:11;;;;;;;8.95;5.13;;;;;;;3.87;100.00;96284.84;1020362;29;20028;-61
2021/04/03 01:18:53;;;;;;;11.95;5.32;;;;;;;3.94;100.00;96283.38;1028277;28;20021;-61
2021/04/03 01:19:36;;;;;;;7.15;4.70;;;;;;;3.92;100.00;96292.34;1024315;28;20031;-61
2021/04/03 01:20:20;;;;;;;8.00;5.47;;;;;;;3.96;100.00;96285.88;1024340;29;20489;-61
2021/04/03 01:21:02;;;;;;;10.07;5.38;;;;;;;3.84;100.00;96287.72;1024267;29;20055;-61
2021/04/03 01:21:49;;;;;;;13.80;5.50;;;;;;;3.80;100.00;96283.69;1028274;28;20121;-61
2021/04/03 01:22:39;;;;;;;10.77;5.25;;;;;;;3.84;100.00;96287.72;1024223;29;20482;-61
2021/04/03 01:23:20;;;;;;;10.55;4.97;;;;;;;3.82;100.00;96286.19;1017135;29;20095;-62
2021/04/03 01:24:10;;;;;;;9.00;5.32;;;;;;;3.82;100.00;96294.88;1024244;28;20425;-60
2021/04/03 01:25:00;;;;;;;10.23;5.38;;;;;;;3.71;100.00;96281.78;1024424;29;20019;-61
2021/04/03 01:25:45;;;;;;;10.15;5.28;;;;;;;3.70;100.00;96291.47;1020245;29;20030;-61
2021/04/03 01:26:29;;;;;;;12.82;5.40;;;;;;;3.73;100.00;96298.28;1014934;29;20476;-64
2021/04/03 01:27:10;;;;;;;11.43;4.80;;;;;;;3.72;100.00;96296.59;1020384;29;20020;-62
2021/04/03 01:27:56;;;;;;;10.18;5.15;;;;;;;3.65;100.00;96298.06;1024188;28;20553;-61
2021/04/03 01:28:49;;;;;;;11.95;5.20;;;;;;;3.66;100.00;96290.06;1024269;29;20012;-60
2021/04/03 01:29:39;;;;;;;8.82;5.22;;;;;;;3.63;100.00;96285.03;1021371;29;20019;-60
2021/04/03 01:30:18;;;;;;;11.07;4.95;;;;;;;3.67;100.00;96291.69;1017890;29;20024;-60
2021/04/03 01:30:48;;;;;;;11.60;5.25;;;;;;;3.67;100.00;96290.88;1017843;29;20115;-60
2021/04/03 01:31:19;;;;;;;9.68;5.00;;;;;;;3.63;100.00;96289.47;1020164;29;20510;-61
2021/04/03 01:31:50;;;;;;;9.50;5.03;;;;;;;3.64;100.00;96284.09;1028141;28;20453;-61
2021/04/03 01:32:25;;;;;;;13.57;4.93;;;;;;;3.67;100.00;96285.63;1020213;29;20032;-61
2021/04/03 01:33:07;;;;;;;12.05;5.80;;;;;;;3.67;100.00;96283.00;1016347;29;20012;-59
2021/04/03 01:33:41;;;;;;;14.00;5.47;;;;;;;3.54;100.00;96286.63;1023992;29;20046;-60
2021/04/03 01:34:17;;;;;;;9.30;4.70;;;;;;;3.53;100.00;96292.81;1024241;29;20027;-60
2021/04/03 01:34:48;;;;;;;11.90;5.47;;;;;;;3.52;100.00;96291.16;1016337;29;20090;-61
2021/04/03 01:35:23;;;;;;;13.88;4.68;;;;;;;3.54;100.00;96291.88;1020268;29;20067;-60
2021/04/03 01:36:03;;;;;;;9.40;5.68;;;;;;;3.57;100.00;96293.41;1016330;29;20028;-61
2021/04/03 01:36:35;;;;;;;;;;;;;;;3.60;100.00;96293.16;1020746;28;20031;-61
2021/04/03 01:37:08;;;;;;;9.75;4.78;;;;;;;3.59;100.00;96289.72;1018537;29;19942;-61
2021/04/03 01:37:43;;;;;;;8.77;4.68;;;;;;;3.58;100.00;96292.47;1016249;29;20051;-61
2021/04/03 01:38:20;;;;;;;11.77;4.75;;;;;;;3.53;100.00;96292.81;1024233;29;20031;-61
2021/04/03 01:38:54;;;;;;;7.55;4.18;;;;;;;3.56;100.00;96295.19;1024235;28;20023;-61
2021/04/03 01:39:25;;;;;;;7.38;4.85;;;;;;;3.59;100.00;96292.34;1024202;29;20011;-61
2021/04/03 01:39:56;;;;;;;9.32;4.10;;;;;;;3.54;100.00;96299.75;1023690;28;20402;-61
2021/04/03 01:40:27;;;;;;;9.48;4.15;;;;;;;3.55;100.00;96306.69;1020291;28;20020;-61
2021/04/03 01:40:58;;;;;;;8.55;4.85;;;;;;;3.54;100.00;96299.75;1028252;28;20046;-60
2021/04/03 01:41:30;;;;;;;10.93;4.50;;;;;;;3.46;100.00;96302.16;1028239;28;20023;-59
2021/04/03 01:42:03;;;;;;;9.60;5.13;;;;;;;3.43;100.00;96296.31;1028062;28;20066;-61
2021/04/03 01:42:34;;;;;;;19.02;5.45;;;;;;;3.47;100.00;96301.19;1019992;29;20027;-62
2021/04/03 01:43:16;;;;;;;13.60;5.28;;;;;;;3.55;100.00;96292.69;1024283;29;20023;-61
2021/04/03 01:43:48;;;;;;;9.30;4.50;;;;;;;3.54;100.00;96288.41;1020176;29;20562;-61
2021/04/03 01:44:22;;;;;;;8.82;4.05;;;;;;;3.54;100.00;96299.75;1016242;29;20039;-63
2021/04/03 01:44:56;;;;;;;9.13;4.55;;;;;;;3.58;100.00;96290.66;1016357;29;20027;-60
2021/04/03 01:45:26;;;;;;;9.57;4.97;;;;;;;3.63;100.00;96299.97;1013583;29;20050;-61
2021/04/03 01:45:57;;;;;;;9.05;4.47;;;;;;;3.61;100.00;96288.75;1020212;29;20031;-60
2021/04/03 01:46:36;;;;;;;10.95;5.22;;;;;;;3.65;100.00;96287.53;1016283;29;20016;-61
2021/04/03 01:47:07;;;;;;;12.27;4.88;;;;;;;3.65;100.00;96295.41;1016180;29;20111;-61
2021/04/03 01:47:39;;;;;;;9.63;4.50;;;;;;;3.62;100.00;96290.41;1019426;29;20052;-61
2021/04/03 01:48:10;;;;;;;8.48;4.47;;;;;;;3.55;100.00;96296.19;1019787;28;20042;-61
2021/04/03 01:48:41;;;;;;;10.65;4.72;;;;;;;3.62;100.00;96290.41;1020363;29;20510;-62
2021/04/03 01:49:13;;;;;;;11.45;4.63;;;;;;;3.58;100.00;96285.41;1024126;29;20023;-61
2021/04/03 01:49:43;;;;;;;8.52;4.20;;;;;;;3.53;100.00;96292.00;1016228;29;20020;-61
2021/04/03 01:50:14;;;;;;;9.95;4.32;;;;;;;3.52;100.00;96288.53;1016204;29;20032;-61
2021/04/03 01:50:45;;;;;;;9.43;4.38;;;;;;;3.56;100.00;96284.69;1020296;29;20024;-62
2021/04/03 01:51:16;;;;;;;8.57;4.35;;;;;;;3.55;100.00;96293.56;1020151;29;20030;-60
2021/04/03 01:51:48;;;;;;;7.88;4.50;;;;;;;3.58;100.00;96289.84;1020493;29;20042;-61
2021/04/03 01:52:30;;;;;;;7.03;4.30;;;;;;;3.53;100.00;96287.56;1020020;29;20028;-61
2021/04/03 01:53:02;;;;;;;8.00;4.60;;;;;;;3.51;100.00;96283.41;1016375;29;20024;-61
2021/04/03 01:53:33;;;;;;;13.38;5.03;;;;;;;3.56;100.00;96287.31;1016246;29;20019;-62
2021/04/03 01:54:04;;;;;;;11.57;5.00;;;;;;;3.63;100.00;96292.91;1024138;29;20473;-61
2021/04/03 01:54:35;;;;;;;7.80;4.80;;;;;;;3.63;100.00;96289.47;1020121;29;20024;-61
2021/04/03 01:55:09;;;;;;;9.23;4.82;;;;;;;3.62;100.00;96285.16;1028187;28;20019;-61
2021/04/03 01:55:39;;;;;;;13.13;4.28;;;;;;;3.53;100.00;96290.19;1020070;29;20027;-61
2021/04/03 01:56:11;;;;;;;13.13;5.18;;;;;;;3.53;100.00;96286.75;1024310;29;20046;-62
2021/04/03 01:56:42;;;;;;;9.45;4.40;;;;;;;3.55;100.00;96285.69;1027948;28;20022;-62
2021/04/03 01:57:13;;;;;;;9.93;4.25;;;;;;;3.55;100.00;96280.44;1020244;29;20106;-61
2021/04/03 01:57:45;;;;;;;8.10;4.55;;;;;;;3.57;100.00;96282.91;1016318;29;20028;-60
2021/04/03 01:58:16;;;;;;;11.35;5.05;;;;;;;3.62;100.00;96290.41;1020158;29;20122;-60
2021/04/03 01:58:47;;;;;;;12.25;4.20;;;;;;;3.67;100.00;96290.88;1020178;29;20031;-61
2021/04/03 01:59:18;;;;;;;10.52;4.97;;;;;;;3.54;100.00;96294.50;1016300;29;20032;-61
2021/04/03 01:59:50;;;;;;;13.98;4.55;;;;;;;3.53;100.00;96295.44;1016309;29;20421;-61
2021/04/03 02:00:23;;;;;;;10.70;4.72;;;;;;;3.56;99.82;96287.31;1016278;29;20156;-61
2021/04/03 02:00:54;;;;;;;15.45;4.43;;;;;;;3.27;100.00;96249.47;1016213;29;20051;-63
2021/04/03 02:01:25;;;;;;;9.43;4.10;;;;;;;3.45;100.00;96274.25;1016353;29;20035;-61
2021/04/03 02:01:56;;;;;;;9.82;4.50;;;;;;;3.50;100.00;96287.84;1020135;29;20171;-61
2021/04/03 02:02:26;;;;;;;11.00;4.60;;;;;;;3.55;100.00;96285.69;1016187;29;20032;-62
2021/04/03 02:02:57;;;;;;;9.95;4.32;;;;;;;3.55;99.79;96285.69;1012239;29;20032;-62
2021/04/03 02:03:31;;;;;;;10.52;4.32;;;;;;;3.54;100.00;96284.00;1020079;29;20026;-61
2021/04/03 02:04:02;;;;;;;10.75;4.75;;;;;;;3.63;99.87;96286.84;1019967;29;20082;-61
2021/04/03 02:04:33;;;;;;;9.93;4.45;;;;;;;3.60;98.71;96277.41;1016389;29;20574;-61
2021/04/03 02:05:04;;;;;;;7.65;3.90;;;;;;;3.58;98.69;96287.19;1016047;29;20087;-63
2021/04/03 02:05:35;;;;;;;12.93;4.13;;;;;;;3.61;98.48;96286.13;1012335;29;20438;-62
2021/04/03 02:06:06;;;;;;;11.05;4.10;;;;;;;3.59;99.10;96284.47;1012256;29;20034;-60
2021/04/03 02:06:37;;;;;;;15.43;4.65;;;;;;;3.50;99.40;96287.84;1012350;29;20025;-62
2021/04/03 02:07:13;;;;;;;11.10;3.97;;;;;;;3.47;99.14;96277.56;1012229;29;20041;-61
2021/04/03 02:07:44;;;;;;;7.95;4.18;;;;;;;3.52;98.99;96280.66;1016150;29;20028;-61
2021/04/03 02:08:15;;;;;;;12.18;4.30;;;;;;;3.52;98.59;96280.66;1016254;29;20035;-62
2021/04/03 02:08:48;;;;;;;14.40;4.60;;;;;;;3.54;97.98;96284.00;1020192;28;20019;-61
2021/04/03 02:09:19;;;;;;;10.20;3.85;;;;;;;3.52;97.67;96285.91;1023987;29;20025;-61
2021/04/03 02:09:50;;;;;;;10.25;4.07;;;;;;;3.53;97.52;96287.56;1016249;29;20024;-61
2021/04/03 02:10:24;;;;;;;7.82;3.92;;;;;;;3.48;97.56;96281.84;1024090;29;20244;-61
2021/04/03 02:11:00;;;;;;;11.50;4.88;;;;;;;3.44;97.36;96280.44;1020142;29;20015;-61
2021/04/03 02:11:33;;;;;;;9.07;3.90;;;;;;;3.44;97.02;96282.25;1012295;29;20021;-61
2021/04/03 02:12:05;;;;;;;8.32;4.00;;;;;;;3.40;97.34;96289.53;1020249;29;20020;-61
2021/04/03 02:12:37;;;;;;;7.22;3.85;;;;;;;3.38;97.95;96283.56;1025306;28;20023;-62
2021/04/03 02:13:08;;;;;;;15.15;5.68;;;;;;;3.46;98.01;96290.81;1023106;29;20019;-61
2021/04/03 02:13:39;;;;;;;21.33;6.10;;;;;;;3.44;96.97;96282.25;1019874;29;20553;-63
2021/04/03 02:14:10;;;;;;;12.27;4.50;;;;;;;3.49;96.69;96280.91;1024079;29;20043;-62
2021/04/03 02:14:41;;;;;;;8.65;3.63;;;;;;;3.41;96.30;96288.56;1012403;29;20556;-61
2021/04/03 02:15:13;;;;;;;11.38;4.10;;;;;;;3.46;96.03;96280.31;1020076;29;20028;-61
2021/04/03 02:15:44;;;;;;;10.15;4.25;;;;;;;3.46;96.62;96272.44;1028083;28;20015;-61
2021/04/03 02:16:15;;;;;;;9.32;4.25;;;;;;;3.39;97.11;96282.59;1020173;29;20019;-61
2021/04/03 02:16:46;;;;;;;7.45;4.03;;;;;;;3.27;96.39;96271.28;1020216;29;20127;-61
2021/04/03 02:17:17;;;;;;;11.20;4.75;;;;;;;3.39;96.08;96279.97;1016090;29;20036;-60
2021/04/03 02:17:49;;;;;;;8.85;3.67;;;;;;;3.46;95.67;96280.31;1020188;29;20011;-61
2021/04/03 02:18:20;;;;;;;7.50;3.38;;;;;;;3.41;95.13;96267.56;1028139;28;20026;-61
2021/04/03 02:18:51;;;;;;;9.70;4.30;;;;;;;3.43;94.89;96288.44;1016251;28;20020;-62
2021/04/03 02:19:22;;;;;;;9.90;3.90;;;;;;;3.35;95.88;96281.19;1016067;29;20032;-61
2021/04/03 02:19:53;;;;;;;14.15;4.80;;;;;;;3.38;96.21;96289.66;1016246;29;20054;-61
2021/04/03 02:20:25;;;;;;;7.22;3.80;;;;;;;3.23;95.67;96264.63;1020091;29;20164;-61
2021/04/03 02:20:58;;;;;;;8.65;3.42;;;;;;;3.38;96.47;96283.56;1024211;28;20023;-62
2021/04/03 02:21:29;;;;;;;10.32;4.40;;;;;;;3.43;95.99;96286.66;1016049;29;20498;-61
2021/04/03 02:22:00;;;;;;;9.90;4.10;;;;;;;3.36;97.12;96281.06;1016170;29;20016;-61
2021/04/03 02:22:30;;;;;;;10.85;4.05;;;;;;;3.38;97.74;96288.81;1023995;29;20394;-61
2021/04/03 02:23:01;;;;;;;7.50;3.97;;;;;;;2.94;96.22;96207.44;1016233;29;20020;-61
2021/04/03 02:23:33;;;;;;;9.48;4.10;;;;;;;3.49;95.77;96280.91;1015926;29;20048;-62
2021/04/03 02:24:04;;;;;;;13.60;4.72;;;;;;;3.48;95.06;96289.72;1016144;29;20388;-61
2021/04/03 02:24:35;;;;;;;9.65;4.13;;;;;;;3.46;94.99;96282.94;1020041;29;20020;-61
2021/04/03 02:25:07;;;;;;;7.28;3.95;;;;;;;3.47;95.05;96282.00;1016198;29;20119;-62
2021/04/03 02:25:38;;;;;;;10.80;3.90;;;;;;;3.42;94.96;96276.28;1019977;29;20020;-61
2021/04/03 02:26:09;;;;;;;8.77;4.30;;;;;;;3.47;94.53;96276.75;1016236;29;20012;-61
2021/04/03 02:26:40;;;;;;;8.57;4.10;;;;;;;3.40;95.25;96281.66;1020037;29;20024;-62
2021/04/03 02:27:11;;;;;;;11.90;4.40;;;;;;;3.51;94.81;96275.53;1012346;29;20060;-61
2021/04/03 02:27:42;;;;;;;8.45;3.72;;;;;;;3.51;93.95;96283.41;1012195;29;20013;-62
2021/04/03 02:28:13;;;;;;;9.80;3.95;;;;;;;3.53;93.91;96278.88;1024160;29;20102;-61
2021/04/03 02:28:44;;;;;;;23.75;9.73;;;;;;;3.51;94.32;96279.00;1016162;29;20028;-61
2021/04/03 02:29:14;;;;;;;10.25;5.03;;;;;;;3.50;94.42;96281.72;1028155;28;20136;-61
2021/04/03 02:29:46;;;;;;;9.68;3.80;;;;;;;3.52;92.89;96280.66;1028011;28;20034;-61
2021/04/03 02:30:19;;;;;;;9.60;3.95;;;;;;;3.47;93.00;96277.56;1020166;29;20052;-60
2021/04/03 02:30:49;;;;;;;9.73;3.47;;;;;;;3.52;93.00;96280.66;1020186;29;20028;-61
2021/04/03 02:31:20;;;;;;;8.13;3.58;;;;;;;3.47;94.42;96279.38;1016119;29;20069;-61
2021/04/03 02:31:51;;;;;;;11.25;4.68;;;;;;;3.48;94.04;96279.22;1012200;29;20119;-61
2021/04/03 02:32:22;;;;;;;13.32;4.13;;;;;;;3.54;93.85;96277.91;1020015;28;20028;-62
2021/04/03 02:32:55;;;;;;;7.60;3.78;;;;;;;3.50;93.06;96272.09;1024158;29;20019;-60
2021/04/03 02:33:26;;;;;;;9.07;3.92;;;;;;;3.50;92.96;96268.59;1024087;29;20020;-61
2021/04/03 02:33:57;;;;;;;8.30;3.72;;;;;;;3.42;93.35;96273.66;1019877;29;20107;-61